Impacts TAF Board
For situational awareness. Not to be used for flight planning purposes.
IDs:

KCSM - Clinton/Sherman Arpt, OK, US

Issued at 1720 UTC 21 May 2022
Updated at 2218 UTC 21 May 2022
Potential Impact None Slight Moderate High
Time2153Z 21/23Z 22/00Z 22/01Z 22/02Z 22/03Z 22/04Z 22/05Z 22/06Z 22/07Z 22/08Z 22/09Z 22/10Z 22/11Z>>
Type OBS PRVL PRVL PRVL PRVL PRVL PRVL PRVL PRVL PRVL PRVL PRVL PRVL PRVL
VIS 10 >6 >6 >6 >6 >6 >6 >6 >6 >6 >6 >6 >6 >6
CIG -- -- -- -- -- -- -- -- -- -- -- -- -- --
Cover CLR SCT SCT SCT SKC SKC SKC SKC SKC SKC SKC SKC SKC SKC
FltCat VFR VFR VFR VFR VFR VFR VFR VFR VFR VFR VFR VFR VFR VFR
WX -- -- -- -- -- -- -- -- -- -- -- -- -- --
WDir 20 20 20 20 30 30 30 30 30 30 30 30 30 30
WSpd 21 21 21 21 7 7 7 7 7 7 7 7 7 7
WGst 29 30 30 30 -- -- -- -- -- -- -- -- -- --
WSHgt -- -- -- -- -- -- -- -- -- -- -- -- -- --
WSDir -- -- -- -- -- -- -- -- -- -- -- -- -- --
WSSpd -- -- -- -- -- -- -- -- -- -- -- -- -- --
R17/35
XWnd 7 7 7 7 4 4 4 4 4 4 4 4 4 4
XGst 10 10 10 10 -- -- -- -- -- -- -- -- -- --
HWnd -20 -20 -20 -20 -6 -6 -6 -6 -6 -6 -6 -6 -6 -6
HGst -27 -28 -28 -28 -- -- -- -- -- -- -- -- -- --
Raw TAF
KCSM 211720Z 2118/2218 02021G30KT P6SM SCT050
  FM220200 03007KT P6SM SKC
  FM221500 06012KT P6SM FEW250


Raw METAR
KCSM 212153Z AUTO 02021G29KT 10SM CLR 21/04 A3010 RMK AO2 PK WND 02033/2118 SLP179 T02060044
KCSM 212053Z AUTO 03022G28KT 10SM CLR 21/04 A3010 RMK AO2 PK WND 01030/2009 SLP177 T02060044 53001
KCSM 211953Z AUTO 01014G28KT 10SM CLR 21/04 A3009 RMK AO2 PK WND 01031/1937 SLP175 T02060044

METAR Board
Radar Display
Forecast Discussion
For situational awareness. Not to be used for flight planning purposes.